Aviation Digital Data Service (ADDS)

Output produced by METARs form (2017 UTC 20 August 2019)
found at http://www.aviationweather.gov/metar/data/
 
METAR text: RJAH 202000Z 00000KT 9999 FEW015 BKN120 22/21 Q1009
Conditions at: RJAH (HYAKURI (JASDF) , JP) observed 2000 UTC 20 August 2019
Temperature: 22.0°C (72°F)
Dewpoint: 21.0°C (70°F) [RH = 94%]
Pressure (altimeter): 29.79 inches Hg (1009.0 mb)
Winds: calm
Visibility: 6 or more miles (10+ km)
Ceiling: 12000 feet AGL
Clouds: few clouds at 1500 feet AGL
broken clouds at 12000 feet AGL
Weather: no significant weather observed at this time

METAR text: RJAH 201927Z 03003KT 330V050 8000 FEW015 BKN120 22/21 Q1009 RMK 1CU015 7AC120 A2980
Conditions at: RJAH (HYAKURI (JASDF) , JP) observed 1927 UTC 20 August 2019
Temperature: 22.0°C (72°F)
Dewpoint: 21.0°C (70°F) [RH = 94%]
Pressure (altimeter): 29.79 inches Hg (1009.0 mb)
Winds: from the NNE (30 degrees) at 3 MPH (3 knots; 1.5 m/s)
Visibility: 5 miles ( 8 km)
Ceiling: 12000 feet AGL
Clouds: few clouds at 1500 feet AGL
broken clouds at 12000 feet AGL
Weather: no significant weather observed at this time

METAR text: RJAH 201900Z 05003KT 6000 -SHRA FEW015 BKN120 22/21 Q1008
Conditions at: RJAH (HYAKURI (JASDF) , JP) observed 1900 UTC 20 August 2019
Temperature: 22.0°C (72°F)
Dewpoint: 21.0°C (70°F) [RH = 94%]
Pressure (altimeter): 29.76 inches Hg (1008.0 mb)
Winds: from the NE (50 degrees) at 3 MPH (3 knots; 1.5 m/s)
Visibility: 4 miles ( 6 km)
Ceiling: 12000 feet AGL
Clouds: few clouds at 1500 feet AGL
broken clouds at 12000 feet AGL
Weather: -SHRA  (light rain showers)

METAR text: RJAH 201826Z VRB02KT 6000 -SHRA FEW015 BKN120 22/21 Q1009 RMK 1CU015 7AC120 A2980
Conditions at: RJAH (HYAKURI (JASDF) , JP) observed 1826 UTC 20 August 2019
Temperature: 22.0°C (72°F)
Dewpoint: 21.0°C (70°F) [RH = 94%]
Pressure (altimeter): 29.79 inches Hg (1009.0 mb)
Winds: variable direction winds at 2 MPH (2 knots; 1.0 m/s)
Visibility: 4 miles ( 6 km)
Ceiling: 12000 feet AGL
Clouds: few clouds at 1500 feet AGL
broken clouds at 12000 feet AGL
Weather: -SHRA  (light rain showers)

METAR text: RJAH 201800Z 32003KT 6000 FEW015 BKN150 22/20 Q1008
Conditions at: RJAH (HYAKURI (JASDF) , JP) observed 1800 UTC 20 August 2019
Temperature: 22.0°C (72°F)
Dewpoint: 20.0°C (68°F) [RH = 88%]
Pressure (altimeter): 29.76 inches Hg (1008.0 mb)
Winds: from the NW (320 degrees) at 3 MPH (3 knots; 1.5 m/s)
Visibility: 4 miles ( 6 km)
Ceiling: 15000 feet AGL
Clouds: few clouds at 1500 feet AGL
broken clouds at 15000 feet AGL
Weather: no significant weather observed at this time

METAR text: RJAH 201743Z VRB02KT 6000 FEW015 BKN160 BKN/// 22/20 Q1008 RMK 1CU015 5AC160 A2979
Conditions at: RJAH (HYAKURI (JASDF) , JP) observed 1743 UTC 20 August 2019
Temperature: 22.0°C (72°F)
Dewpoint: 20.0°C (68°F) [RH = 88%]
Pressure (altimeter): 29.76 inches Hg (1008.0 mb)
Winds: variable direction winds at 2 MPH (2 knots; 1.0 m/s)
Visibility: 4 miles ( 6 km)
Ceiling: 16000 feet AGL
Clouds: few clouds at 1500 feet AGL
broken clouds at 16000 feet AGL
Weather: no significant weather observed at this time

METAR text: RJAH 201700Z VRB01KT 4000 BR FEW002 BKN/// 22/20 Q1008
Conditions at: RJAH (HYAKURI (JASDF) , JP) observed 1700 UTC 20 August 2019
Temperature: 22.0°C (72°F)
Dewpoint: 20.0°C (68°F) [RH = 88%]
Pressure (altimeter): 29.76 inches Hg (1008.0 mb)
Winds: variable direction winds at 1 MPH (1 knots; 0.5 m/s)
Visibility: 2.49 miles (4.01 km)
Ceiling: at least 12,000 feet AGL
Clouds: few clouds at 200 feet AGL
Weather: BR  (mist)

METAR text: RJAH 201612Z VRB02KT 4000 BR FEW015 BKN/// 22/20 Q1008 RMK 1CU015 A2979 VIS S-SW 3000M
Conditions at: RJAH (HYAKURI (JASDF) , JP) observed 1612 UTC 20 August 2019
Temperature: 22.0°C (72°F)
Dewpoint: 20.0°C (68°F) [RH = 88%]
Pressure (altimeter): 29.76 inches Hg (1008.0 mb)
Winds: variable direction winds at 2 MPH (2 knots; 1.0 m/s)
Visibility: 2.49 miles (4.01 km)
Ceiling: at least 12,000 feet AGL
Clouds: few clouds at 1500 feet AGL
Weather: BR  (mist)

METAR text: RJAH 201600Z 31002KT 5000 BR FEW015 BKN/// 22/21 Q1009
Conditions at: RJAH (HYAKURI (JASDF) , JP) observed 1600 UTC 20 August 2019
Temperature: 22.0°C (72°F)
Dewpoint: 21.0°C (70°F) [RH = 94%]
Pressure (altimeter): 29.79 inches Hg (1009.0 mb)
Winds: from the NW (310 degrees) at 2 MPH (2 knots; 1.0 m/s)
Visibility: 3 miles ( 5 km)
Ceiling: at least 12,000 feet AGL
Clouds: few clouds at 1500 feet AGL
Weather: BR  (mist)

METAR text: RJAH 201532Z VRB02KT 5000 BR FEW015 BKN/// 22/21 Q1009 RMK 1CU015 A2980
Conditions at: RJAH (HYAKURI (JASDF) , JP) observed 1532 UTC 20 August 2019
Temperature: 22.0°C (72°F)
Dewpoint: 21.0°C (70°F) [RH = 94%]
Pressure (altimeter): 29.79 inches Hg (1009.0 mb)
Winds: variable direction winds at 2 MPH (2 knots; 1.0 m/s)
Visibility: 3 miles ( 5 km)
Ceiling: at least 12,000 feet AGL
Clouds: few clouds at 1500 feet AGL
Weather: BR  (mist)

METAR text: RJAH 201500Z 32003KT 4000 BR FEW015 BKN/// 22/21 Q1009
Conditions at: RJAH (HYAKURI (JASDF) , JP) observed 1500 UTC 20 August 2019
Temperature: 22.0°C (72°F)
Dewpoint: 21.0°C (70°F) [RH = 94%]
Pressure (altimeter): 29.79 inches Hg (1009.0 mb)
Winds: from the NW (320 degrees) at 3 MPH (3 knots; 1.5 m/s)
Visibility: 2.49 miles (4.01 km)
Ceiling: at least 12,000 feet AGL
Clouds: few clouds at 1500 feet AGL
Weather: BR  (mist)

METAR text: RJAH 201400Z VRB02KT 3000 BR FEW001 BKN/// 22/21 Q1010
Conditions at: RJAH (HYAKURI (JASDF) , JP) observed 1400 UTC 20 August 2019
Temperature: 22.0°C (72°F)
Dewpoint: 21.0°C (70°F) [RH = 94%]
Pressure (altimeter): 29.82 inches Hg (1010.0 mb)
Winds: variable direction winds at 2 MPH (2 knots; 1.0 m/s)
Visibility: 1.86 miles (2.99 km)
Ceiling: at least 12,000 feet AGL
Clouds: few clouds at 100 feet AGL
Weather: BR  (mist)

METAR text: RJAH 201334Z VRB02KT 2400 BR SCT001 BKN/// 22/21 Q1010 RMK 3ST001 A2982 VIS NW 5KM
Conditions at: RJAH (HYAKURI (JASDF) , JP) observed 1334 UTC 20 August 2019
Temperature: 22.0°C (72°F)
Dewpoint: 21.0°C (70°F) [RH = 94%]
Pressure (altimeter): 29.82 inches Hg (1010.0 mb)
Winds: variable direction winds at 2 MPH (2 knots; 1.0 m/s)
Visibility: 1.49 miles (2.40 km)
Ceiling: at least 12,000 feet AGL
Clouds: scattered clouds at 100 feet AGL
Weather: BR  (mist)

METAR text: RJAH 201300Z 02003KT 1500 R03/P1800N BR MIFG SCT000 BKN001 22/21 Q1010
Conditions at: RJAH (HYAKURI (JASDF) , JP) observed 1300 UTC 20 August 2019
Temperature: 22.0°C (72°F)
Dewpoint: 21.0°C (70°F) [RH = 94%]
Pressure (altimeter): 29.82 inches Hg (1010.0 mb)
Winds: from the NNE (20 degrees) at 3 MPH (3 knots; 1.5 m/s)
Visibility: 0.93 miles (1.50 km)
Ceiling: 100 feet AGL
Clouds: scattered clouds at 0 feet AGL
broken clouds at 100 feet AGL
Weather: BR MIFG  (mist, shallow fog)

METAR text: RJAH 201250Z 02003KT 1500 R03/P1800N BR MIFG SCT000 BKN001 22/21 Q1010 RMK 3ST000 7ST001 A2983 VIS N-SE 800M
Conditions at: RJAH (HYAKURI (JASDF) , JP) observed 1250 UTC 20 August 2019
Temperature: 22.0°C (72°F)
Dewpoint: 21.0°C (70°F) [RH = 94%]
Pressure (altimeter): 29.82 inches Hg (1010.0 mb)
Winds: from the NNE (20 degrees) at 3 MPH (3 knots; 1.5 m/s)
Visibility: 0.93 miles (1.50 km)
Ceiling: 100 feet AGL
Clouds: scattered clouds at 0 feet AGL
broken clouds at 100 feet AGL
Weather: BR MIFG  (mist, shallow fog)

METAR text: RJAH 201234Z VRB01KT 2000 BR MIFG SCT000 BKN001 22/21 Q1010 RMK 3ST000 7ST001 A2984 VIS N-SE 800M
Conditions at: RJAH (HYAKURI (JASDF) , JP) observed 1234 UTC 20 August 2019
Temperature: 22.0°C (72°F)
Dewpoint: 21.0°C (70°F) [RH = 94%]
Pressure (altimeter): 29.82 inches Hg (1010.0 mb)
Winds: variable direction winds at 1 MPH (1 knots; 0.5 m/s)
Visibility: 1.24 miles (2.00 km)
Ceiling: 100 feet AGL
Clouds: scattered clouds at 0 feet AGL
broken clouds at 100 feet AGL
Weather: BR MIFG  (mist, shallow fog)

METAR text: RJAH 201227Z VRB01KT 3000 BR MIFG SCT000 BKN001 BKN/// 22/21 Q1010 RMK 3ST000 5ST001 A2984 VIS N-SE 1000M
Conditions at: RJAH (HYAKURI (JASDF) , JP) observed 1227 UTC 20 August 2019
Temperature: 22.0°C (72°F)
Dewpoint: 21.0°C (70°F) [RH = 94%]
Pressure (altimeter): 29.82 inches Hg (1010.0 mb)
Winds: variable direction winds at 1 MPH (1 knots; 0.5 m/s)
Visibility: 1.86 miles (2.99 km)
Ceiling: 100 feet AGL
Clouds: scattered clouds at 0 feet AGL
broken clouds at 100 feet AGL
Weather: BR MIFG  (mist, shallow fog)

METAR text: RJAH 201220Z VRB02KT 4000 BR MIFG FEW000 SCT001 BKN/// 22/21 Q1010 RMK 2ST000 3ST001 A2984 VIS N-SE 2000M FCST AMD 1218 BECMG 1212 35003KT TEMPO 1218 0900 FG BKN001ST BKN004ST BKN250
Conditions at: RJAH (HYAKURI (JASDF) , JP) observed 1220 UTC 20 August 2019
Temperature: 22.0°C (72°F)
Dewpoint: 21.0°C (70°F) [RH = 94%]
Pressure (altimeter): 29.82 inches Hg (1010.0 mb)
Winds: variable direction winds at 2 MPH (2 knots; 1.0 m/s)
Visibility: 2.49 miles (4.01 km)
Ceiling: at least 12,000 feet AGL
Clouds: few clouds at 0 feet AGL
scattered clouds at 100 feet AGL
Weather: BR MIFG  (mist, shallow fog)

METAR text: RJAH 201200Z 01003KT 5000 BR FEW006 SCT080 BKN/// 22/21 Q1010
Conditions at: RJAH (HYAKURI (JASDF) , JP) observed 1200 UTC 20 August 2019
Temperature: 22.0°C (72°F)
Dewpoint: 21.0°C (70°F) [RH = 94%]
Pressure (altimeter): 29.82 inches Hg (1010.0 mb)
Winds: from the N (10 degrees) at 3 MPH (3 knots; 1.5 m/s)
Visibility: 3 miles ( 5 km)
Ceiling: at least 12,000 feet AGL
Clouds: few clouds at 600 feet AGL
scattered clouds at 8000 feet AGL
Weather: BR  (mist)

METAR text: RJAH 201123Z 36002KT 6000 SCT006 BKN080 BKN/// 22/21 Q1010 RMK 3ST006 5AC080 A2984
Conditions at: RJAH (HYAKURI (JASDF) , JP) observed 1123 UTC 20 August 2019
Temperature: 22.0°C (72°F)
Dewpoint: 21.0°C (70°F) [RH = 94%]
Pressure (altimeter): 29.82 inches Hg (1010.0 mb)
Winds: from the N (360 degrees) at 2 MPH (2 knots; 1.0 m/s)
Visibility: 4 miles ( 6 km)
Ceiling: 8000 feet AGL
Clouds: scattered clouds at 600 feet AGL
broken clouds at 8000 feet AGL
Weather: no significant weather observed at this time

METAR text: RJAH 201100Z VRB02KT 7000 SCT004 BKN006 BKN080 23/21 Q1010
Conditions at: RJAH (HYAKURI (JASDF) , JP) observed 1100 UTC 20 August 2019
Temperature: 23.0°C (73°F)
Dewpoint: 21.0°C (70°F) [RH = 89%]
Pressure (altimeter): 29.82 inches Hg (1010.0 mb)
Winds: variable direction winds at 2 MPH (2 knots; 1.0 m/s)
Visibility: 4 miles ( 7 km)
Ceiling: 600 feet AGL
Clouds: scattered clouds at 400 feet AGL
broken clouds at 600 feet AGL
broken clouds at 8000 feet AGL
Weather: no significant weather observed at this time

METAR text: RJAH 201000Z VRB02KT 9999 FEW008 SCT030 BKN080 22/21 Q1010
Conditions at: RJAH (HYAKURI (JASDF) , JP) observed 1000 UTC 20 August 2019
Temperature: 22.0°C (72°F)
Dewpoint: 21.0°C (70°F) [RH = 94%]
Pressure (altimeter): 29.82 inches Hg (1010.0 mb)
Winds: variable direction winds at 2 MPH (2 knots; 1.0 m/s)
Visibility: 6 or more miles (10+ km)
Ceiling: 8000 feet AGL
Clouds: few clouds at 800 feet AGL
scattered clouds at 3000 feet AGL
broken clouds at 8000 feet AGL
Weather: no significant weather observed at this time

METAR text: RJAH 200905Z VRB01KT 9999 SCT006 BKN030 BKN080 23/21 Q1009 RMK 3ST006 5CU030 7AC080 A2982
Conditions at: RJAH (HYAKURI (JASDF) , JP) observed 0905 UTC 20 August 2019
Temperature: 23.0°C (73°F)
Dewpoint: 21.0°C (70°F) [RH = 89%]
Pressure (altimeter): 29.79 inches Hg (1009.0 mb)
Winds: variable direction winds at 1 MPH (1 knots; 0.5 m/s)
Visibility: 6 or more miles (10+ km)
Ceiling: 3000 feet AGL
Clouds: scattered clouds at 600 feet AGL
broken clouds at 3000 feet AGL
broken clouds at 8000 feet AGL
Weather: no significant weather observed at this time

METAR text: RJAH 200900Z 15004KT 9999 FEW006 SCT015 BKN080 23/21 Q1009 RETS
Conditions at: RJAH (HYAKURI (JASDF) , JP) observed 0900 UTC 20 August 2019
Temperature: 23.0°C (73°F)
Dewpoint: 21.0°C (70°F) [RH = 89%]
Pressure (altimeter): 29.79 inches Hg (1009.0 mb)
Winds: from the SSE (150 degrees) at 5 MPH (4 knots; 2.1 m/s)
Visibility: 6 or more miles (10+ km)
Ceiling: 8000 feet AGL
Clouds: few clouds at 600 feet AGL
scattered clouds at 1500 feet AGL
broken clouds at 8000 feet AGL
Weather: no significant weather observed at this time

METAR text: RJAH 200831Z COR VRB02KT 9999 -TSRA FEW006 SCT015 SCT020CB BKN080 23/21 Q1009 RMK 1CU006 3CU015 3CB020 7AC080 A2980 FBL TS 30KM E-S MOV SE
Conditions at: RJAH (HYAKURI (JASDF) , JP) observed 0831 UTC 20 August 2019
Temperature: 23.0°C (73°F)
Dewpoint: 21.0°C (70°F) [RH = 89%]
Pressure (altimeter): 29.79 inches Hg (1009.0 mb)
Winds: variable direction winds at 2 MPH (2 knots; 1.0 m/s)
Visibility: 6 or more miles (10+ km)
Ceiling: 8000 feet AGL
Clouds: few clouds at 600 feet AGL
scattered clouds at 1500 feet AGL
scattered clouds at 2000 feet AGL
broken clouds at 8000 feet AGL
Weather: -TSRA  (light rain associated with thunderstorm(s))

METAR text: RJAH 200815Z 14004KT 110V190 7000 -TSRA FEW006 SCT015 BKN020CB 22/21 Q1008 RMK 1CU006 4CU015 6CB020 A2978 FBL TS 5KM E-SE MOV SE
Conditions at: RJAH (HYAKURI (JASDF) , JP) observed 0815 UTC 20 August 2019
Temperature: 22.0°C (72°F)
Dewpoint: 21.0°C (70°F) [RH = 94%]
Pressure (altimeter): 29.76 inches Hg (1008.0 mb)
Winds: from the SE (140 degrees) at 5 MPH (4 knots; 2.1 m/s)
Visibility: 4 miles ( 7 km)
Ceiling: 2000 feet AGL
Clouds: few clouds at 600 feet AGL
scattered clouds at 1500 feet AGL
broken clouds at 2000 feet AGL
Weather: -TSRA  (light rain associated with thunderstorm(s))

METAR text: RJAH 200800Z 11008KT 7000 -TSRA FEW006 BKN015 BKN020CB 23/23 Q1011
Conditions at: RJAH (HYAKURI (JASDF) , JP) observed 0800 UTC 20 August 2019
Temperature: 23.0°C (73°F)
Dewpoint: 23.0°C (73°F) [RH = 100%]
Pressure (altimeter): 29.85 inches Hg (1011.0 mb)
Winds: from the ESE (110 degrees) at 9 MPH (8 knots; 4.1 m/s)
Visibility: 4 miles ( 7 km)
Ceiling: 1500 feet AGL
Clouds: few clouds at 600 feet AGL
broken clouds at 1500 feet AGL
broken clouds at 2000 feet AGL
Weather: -TSRA  (light rain associated with thunderstorm(s))

METAR text: RJAH 200748Z 11010KT 6000 -TSRA FEW006 BKN015 BKN020CB 23/23 Q1011 RMK 1CU006 5CU015 5CB020 A2986 FBL TS 25KM W APCHG STN 10KM NE-SE MOV SE
Conditions at: RJAH (HYAKURI (JASDF) , JP) observed 0748 UTC 20 August 2019
Temperature: 23.0°C (73°F)
Dewpoint: 23.0°C (73°F) [RH = 100%]
Pressure (altimeter): 29.85 inches Hg (1011.0 mb)
Winds: from the ESE (110 degrees) at 12 MPH (10 knots; 5.1 m/s)
Visibility: 4 miles ( 6 km)
Ceiling: 1500 feet AGL
Clouds: few clouds at 600 feet AGL
broken clouds at 1500 feet AGL
broken clouds at 2000 feet AGL
Weather: -TSRA  (light rain associated with thunderstorm(s))

METAR text: RJAH 200736Z 07014KT 3000 -TSRA FEW006 BKN012 BKN020CB 26/23 Q1011 RMK 2CU006 7CU012 5CB020 A2985 VIS S-NW 6KM MOD TS 5KM NE-SE MOV SE
Conditions at: RJAH (HYAKURI (JASDF) , JP) observed 0736 UTC 20 August 2019
Temperature: 26.0°C (79°F)
Dewpoint: 23.0°C (73°F) [RH = 84%]
Pressure (altimeter): 29.85 inches Hg (1011.0 mb)
Winds: from the ENE (70 degrees) at 16 MPH (14 knots; 7.2 m/s)
Visibility: 1.86 miles (2.99 km)
Ceiling: 1200 feet AGL
Clouds: few clouds at 600 feet AGL
broken clouds at 1200 feet AGL
broken clouds at 2000 feet AGL
Weather: -TSRA  (light rain associated with thunderstorm(s))

METAR text: RJAH 200722Z 31029G44KT 1200 R03/0250VP1800D +TSRA SCT006 BKN008 BKN020CB 26/23 Q1011 RMK 3CU006 7CU008 7CB020 A2985 R0900 MOD TS OHD RI++ FCST AMD 0713 BECMG 0809 06010KT 5000 -SHRA BR FEW012CU BKN020CU TEMPO 0910 3000 -SHRA BR FEW006CU BKN008CU BKN015CU
Conditions at: RJAH (HYAKURI (JASDF) , JP) observed 0722 UTC 20 August 2019
Temperature: 26.0°C (79°F)
Dewpoint: 23.0°C (73°F) [RH = 84%]
Pressure (altimeter): 29.85 inches Hg (1011.0 mb)
Winds: from the NW (310 degrees) at 33 MPH (29 knots; 14.9 m/s)
gusting to 51 MPH (44 knots; 22.6 m/s)
Visibility: 0.75 miles (1.21 km)
Ceiling: 800 feet AGL
Clouds: scattered clouds at 600 feet AGL
broken clouds at 800 feet AGL
broken clouds at 2000 feet AGL
Weather: +TSRA  (heavy rain associated with thunderstorm(s))

METAR text: RJAH 200715Z 33008G21KT 3000 -TSRA FEW008 BKN010 BKN020CB 26/23 Q1009 RMK 1CU008 7CU010 5CB020 A2980 VIS SW-NW 1000M FBL TS OHD
Conditions at: RJAH (HYAKURI (JASDF) , JP) observed 0715 UTC 20 August 2019
Temperature: 26.0°C (79°F)
Dewpoint: 23.0°C (73°F) [RH = 84%]
Pressure (altimeter): 29.79 inches Hg (1009.0 mb)
Winds: from the NNW (330 degrees) at 9 MPH (8 knots; 4.1 m/s)
gusting to 24 MPH (21 knots; 10.8 m/s)
Visibility: 1.86 miles (2.99 km)
Ceiling: 1000 feet AGL
Clouds: few clouds at 800 feet AGL
broken clouds at 1000 feet AGL
broken clouds at 2000 feet AGL
Weather: -TSRA  (light rain associated with thunderstorm(s))

METAR text: RJAH 200712Z 09006KT 040V120 7000 -TSRA FEW008 BKN015 SCT020CB 26/24 Q1007 RMK 1CU008 7CU015 4CB020 A2976 VIS W-N 3000M FBL TS 10KM SW-NW APCHG STN
Conditions at: RJAH (HYAKURI (JASDF) , JP) observed 0712 UTC 20 August 2019
Temperature: 26.0°C (79°F)
Dewpoint: 24.0°C (75°F) [RH = 89%]
Pressure (altimeter): 29.73 inches Hg (1007.0 mb)
Winds: from the E (90 degrees) at 7 MPH (6 knots; 3.1 m/s)
Visibility: 4 miles ( 7 km)
Ceiling: 1500 feet AGL
Clouds: few clouds at 800 feet AGL
broken clouds at 1500 feet AGL
scattered clouds at 2000 feet AGL
Weather: -TSRA  (light rain associated with thunderstorm(s))

METAR text: RJAH 200700Z 04005KT 9999 -SHRA FEW012 BKN015 SCT025CB 26/24 Q1008
Conditions at: RJAH (HYAKURI (JASDF) , JP) observed 0700 UTC 20 August 2019
Temperature: 26.0°C (79°F)
Dewpoint: 24.0°C (75°F) [RH = 89%]
Pressure (altimeter): 29.76 inches Hg (1008.0 mb)
Winds: from the NE (40 degrees) at 6 MPH (5 knots; 2.6 m/s)
Visibility: 6 or more miles (10+ km)
Ceiling: 1500 feet AGL
Clouds: few clouds at 1200 feet AGL
broken clouds at 1500 feet AGL
scattered clouds at 2500 feet AGL
Weather: -SHRA  (light rain showers)

METAR text: RJAH 200645Z 03004KT 9999 -SHRA FEW012 BKN015 FEW025CB 26/24 Q1008 RMK 1CU012 7CU015 1CB025 A2978 CB 30KM W-NW MOV SE
Conditions at: RJAH (HYAKURI (JASDF) , JP) observed 0645 UTC 20 August 2019
Temperature: 26.0°C (79°F)
Dewpoint: 24.0°C (75°F) [RH = 89%]
Pressure (altimeter): 29.76 inches Hg (1008.0 mb)
Winds: from the NNE (30 degrees) at 5 MPH (4 knots; 2.1 m/s)
Visibility: 6 or more miles (10+ km)
Ceiling: 1500 feet AGL
Clouds: few clouds at 1200 feet AGL
broken clouds at 1500 feet AGL
few clouds at 2500 feet AGL
Weather: -SHRA  (light rain showers)

METAR text: RJAH 200600Z 08005KT 040V110 9999 FEW015 BKN020 27/23 Q1008
Conditions at: RJAH (HYAKURI (JASDF) , JP) observed 0600 UTC 20 August 2019
Temperature: 27.0°C (81°F)
Dewpoint: 23.0°C (73°F) [RH = 79%]
Pressure (altimeter): 29.76 inches Hg (1008.0 mb)
Winds: from the E (80 degrees) at 6 MPH (5 knots; 2.6 m/s)
Visibility: 6 or more miles (10+ km)
Ceiling: 2000 feet AGL
Clouds: few clouds at 1500 feet AGL
broken clouds at 2000 feet AGL
Weather: no significant weather observed at this time

METAR text: RJAH 200532Z 09005KT 9999 -SHRA FEW015 BKN020 27/23 Q1008 RMK 2CU015 7CU020 A2979
Conditions at: RJAH (HYAKURI (JASDF) , JP) observed 0532 UTC 20 August 2019
Temperature: 27.0°C (81°F)
Dewpoint: 23.0°C (73°F) [RH = 79%]
Pressure (altimeter): 29.76 inches Hg (1008.0 mb)
Winds: from the E (90 degrees) at 6 MPH (5 knots; 2.6 m/s)
Visibility: 6 or more miles (10+ km)
Ceiling: 2000 feet AGL
Clouds: few clouds at 1500 feet AGL
broken clouds at 2000 feet AGL
Weather: -SHRA  (light rain showers)

METAR text: RJAH 200515Z 09006KT 060V130 9999 FEW015 BKN020 27/23 Q1009 RMK 1CU015 7CU020 A2980
Conditions at: RJAH (HYAKURI (JASDF) , JP) observed 0515 UTC 20 August 2019
Temperature: 27.0°C (81°F)
Dewpoint: 23.0°C (73°F) [RH = 79%]
Pressure (altimeter): 29.79 inches Hg (1009.0 mb)
Winds: from the E (90 degrees) at 7 MPH (6 knots; 3.1 m/s)
Visibility: 6 or more miles (10+ km)
Ceiling: 2000 feet AGL
Clouds: few clouds at 1500 feet AGL
broken clouds at 2000 feet AGL
Weather: no significant weather observed at this time

METAR text: RJAH 200500Z 10008KT 9999 -SHRA FEW015 BKN020 27/23 Q1009
Conditions at: RJAH (HYAKURI (JASDF) , JP) observed 0500 UTC 20 August 2019
Temperature: 27.0°C (81°F)
Dewpoint: 23.0°C (73°F) [RH = 79%]
Pressure (altimeter): 29.79 inches Hg (1009.0 mb)
Winds: from the E (100 degrees) at 9 MPH (8 knots; 4.1 m/s)
Visibility: 6 or more miles (10+ km)
Ceiling: 2000 feet AGL
Clouds: few clouds at 1500 feet AGL
broken clouds at 2000 feet AGL
Weather: -SHRA  (light rain showers)

METAR text: RJAH 200400Z 10007KT 070V130 9999 -SHRA FEW015 BKN020 BKN050 27/23 Q1009
Conditions at: RJAH (HYAKURI (JASDF) , JP) observed 0400 UTC 20 August 2019
Temperature: 27.0°C (81°F)
Dewpoint: 23.0°C (73°F) [RH = 79%]
Pressure (altimeter): 29.79 inches Hg (1009.0 mb)
Winds: from the E (100 degrees) at 8 MPH (7 knots; 3.6 m/s)
Visibility: 6 or more miles (10+ km)
Ceiling: 2000 feet AGL
Clouds: few clouds at 1500 feet AGL
broken clouds at 2000 feet AGL
broken clouds at 5000 feet AGL
Weather: -SHRA  (light rain showers)

METAR text: RJAH 200348Z 09007KT 9999 -SHRA FEW015 BKN020 BKN050 28/23 Q1009 RMK 1CU015 6CU020 7SC050 A2981
Conditions at: RJAH (HYAKURI (JASDF) , JP) observed 0348 UTC 20 August 2019
Temperature: 28.0°C (82°F)
Dewpoint: 23.0°C (73°F) [RH = 74%]
Pressure (altimeter): 29.79 inches Hg (1009.0 mb)
Winds: from the E (90 degrees) at 8 MPH (7 knots; 3.6 m/s)
Visibility: 6 or more miles (10+ km)
Ceiling: 2000 feet AGL
Clouds: few clouds at 1500 feet AGL
broken clouds at 2000 feet AGL
broken clouds at 5000 feet AGL
Weather: -SHRA  (light rain showers)

METAR text: RJAH 200300Z 10007KT 070V130 9999 FEW015 BKN025 BKN040 28/23 Q1010
Conditions at: RJAH (HYAKURI (JASDF) , JP) observed 0300 UTC 20 August 2019
Temperature: 28.0°C (82°F)
Dewpoint: 23.0°C (73°F) [RH = 74%]
Pressure (altimeter): 29.82 inches Hg (1010.0 mb)
Winds: from the E (100 degrees) at 8 MPH (7 knots; 3.6 m/s)
Visibility: 6 or more miles (10+ km)
Ceiling: 2500 feet AGL
Clouds: few clouds at 1500 feet AGL
broken clouds at 2500 feet AGL
broken clouds at 4000 feet AGL
Weather: no significant weather observed at this time

METAR text: RJAH 200235Z 11007KT 9999 FEW015 BKN025 BKN040 28/23 Q1010 RMK 1CU015 5CU025 7SC040 A2984
Conditions at: RJAH (HYAKURI (JASDF) , JP) observed 0235 UTC 20 August 2019
Temperature: 28.0°C (82°F)
Dewpoint: 23.0°C (73°F) [RH = 74%]
Pressure (altimeter): 29.82 inches Hg (1010.0 mb)
Winds: from the ESE (110 degrees) at 8 MPH (7 knots; 3.6 m/s)
Visibility: 6 or more miles (10+ km)
Ceiling: 2500 feet AGL
Clouds: few clouds at 1500 feet AGL
broken clouds at 2500 feet AGL
broken clouds at 4000 feet AGL
Weather: no significant weather observed at this time

METAR text: RJAH 200200Z 10008KT 9999 FEW015 SCT025 BKN040 27/23 Q1010
Conditions at: RJAH (HYAKURI (JASDF) , JP) observed 0200 UTC 20 August 2019
Temperature: 27.0°C (81°F)
Dewpoint: 23.0°C (73°F) [RH = 79%]
Pressure (altimeter): 29.82 inches Hg (1010.0 mb)
Winds: from the E (100 degrees) at 9 MPH (8 knots; 4.1 m/s)
Visibility: 6 or more miles (10+ km)
Ceiling: 4000 feet AGL
Clouds: few clouds at 1500 feet AGL
scattered clouds at 2500 feet AGL
broken clouds at 4000 feet AGL
Weather: no significant weather observed at this time

METAR text: RJAH 200100Z 10007KT 9999 FEW012 BKN025 BKN040 26/23 Q1011
Conditions at: RJAH (HYAKURI (JASDF) , JP) observed 0100 UTC 20 August 2019
Temperature: 26.0°C (79°F)
Dewpoint: 23.0°C (73°F) [RH = 84%]
Pressure (altimeter): 29.85 inches Hg (1011.0 mb)
Winds: from the E (100 degrees) at 8 MPH (7 knots; 3.6 m/s)
Visibility: 6 or more miles (10+ km)
Ceiling: 2500 feet AGL
Clouds: few clouds at 1200 feet AGL
broken clouds at 2500 feet AGL
broken clouds at 4000 feet AGL
Weather: no significant weather observed at this time

METAR text: RJAH 200040Z 09008KT 9999 FEW012 BKN020 BKN040 26/23 Q1011 RMK 1CU012 5CU020 7SC040 A2987
Conditions at: RJAH (HYAKURI (JASDF) , JP) observed 0040 UTC 20 August 2019
Temperature: 26.0°C (79°F)
Dewpoint: 23.0°C (73°F) [RH = 84%]
Pressure (altimeter): 29.85 inches Hg (1011.0 mb)
Winds: from the E (90 degrees) at 9 MPH (8 knots; 4.1 m/s)
Visibility: 6 or more miles (10+ km)
Ceiling: 2000 feet AGL
Clouds: few clouds at 1200 feet AGL
broken clouds at 2000 feet AGL
broken clouds at 4000 feet AGL
Weather: no significant weather observed at this time

METAR text: RJAH 200012Z 09007KT 9999 -SHRA FEW010 BKN020 BKN040 25/23 Q1011 RMK 2ST010 6CU020 7SC040 A2988
Conditions at: RJAH (HYAKURI (JASDF) , JP) observed 0012 UTC 20 August 2019
Temperature: 25.0°C (77°F)
Dewpoint: 23.0°C (73°F) [RH = 89%]
Pressure (altimeter): 29.85 inches Hg (1011.0 mb)
Winds: from the E (90 degrees) at 8 MPH (7 knots; 3.6 m/s)
Visibility: 6 or more miles (10+ km)
Ceiling: 2000 feet AGL
Clouds: few clouds at 1000 feet AGL
broken clouds at 2000 feet AGL
broken clouds at 4000 feet AGL
Weather: -SHRA  (light rain showers)

METAR text: RJAH 200000Z 09006KT 9999 FEW010 BKN020 BKN040 25/23 Q1011
Conditions at: RJAH (HYAKURI (JASDF) , JP) observed 0000 UTC 20 August 2019
Temperature: 25.0°C (77°F)
Dewpoint: 23.0°C (73°F) [RH = 89%]
Pressure (altimeter): 29.85 inches Hg (1011.0 mb)
Winds: from the E (90 degrees) at 7 MPH (6 knots; 3.1 m/s)
Visibility: 6 or more miles (10+ km)
Ceiling: 2000 feet AGL
Clouds: few clouds at 1000 feet AGL
broken clouds at 2000 feet AGL
broken clouds at 4000 feet AGL
Weather: no significant weather observed at this time

METAR text: RJAH 192339Z 09006KT 9999 FEW010 BKN020 BKN040 25/23 Q1011 RMK 2ST010 5CU020 7SC040 A2987
Conditions at: RJAH (HYAKURI (JASDF) , JP) observed 2339 UTC 19 August 2019
Temperature: 25.0°C (77°F)
Dewpoint: 23.0°C (73°F) [RH = 89%]
Pressure (altimeter): 29.85 inches Hg (1011.0 mb)
Winds: from the E (90 degrees) at 7 MPH (6 knots; 3.1 m/s)
Visibility: 6 or more miles (10+ km)
Ceiling: 2000 feet AGL
Clouds: few clouds at 1000 feet AGL
broken clouds at 2000 feet AGL
broken clouds at 4000 feet AGL
Weather: no significant weather observed at this time

METAR text: RJAH 192300Z 08007KT 8000 FEW008 BKN035 25/23 Q1011
Conditions at: RJAH (HYAKURI (JASDF) , JP) observed 2300 UTC 19 August 2019
Temperature: 25.0°C (77°F)
Dewpoint: 23.0°C (73°F) [RH = 89%]
Pressure (altimeter): 29.85 inches Hg (1011.0 mb)
Winds: from the E (80 degrees) at 8 MPH (7 knots; 3.6 m/s)
Visibility: 5 miles ( 8 km)
Ceiling: 3500 feet AGL
Clouds: few clouds at 800 feet AGL
broken clouds at 3500 feet AGL
Weather: no significant weather observed at this time

METAR text: RJAH 192200Z 07005KT 7000 FEW005 SCT006 BKN040 24/22 Q1011
Conditions at: RJAH (HYAKURI (JASDF) , JP) observed 2200 UTC 19 August 2019
Temperature: 24.0°C (75°F)
Dewpoint: 22.0°C (72°F) [RH = 89%]
Pressure (altimeter): 29.85 inches Hg (1011.0 mb)
Winds: from the ENE (70 degrees) at 6 MPH (5 knots; 2.6 m/s)
Visibility: 4 miles ( 7 km)
Ceiling: 4000 feet AGL
Clouds: few clouds at 500 feet AGL
scattered clouds at 600 feet AGL
broken clouds at 4000 feet AGL
Weather: no significant weather observed at this time

METAR text: RJAH 192100Z 06005KT 7000 FEW008 BKN040 BKN100 24/22 Q1012
Conditions at: RJAH (HYAKURI (JASDF) , JP) observed 2100 UTC 19 August 2019
Temperature: 24.0°C (75°F)
Dewpoint: 22.0°C (72°F) [RH = 89%]
Pressure (altimeter): 29.88 inches Hg (1012.0 mb)
Winds: from the ENE (60 degrees) at 6 MPH (5 knots; 2.6 m/s)
Visibility: 4 miles ( 7 km)
Ceiling: 4000 feet AGL
Clouds: few clouds at 800 feet AGL
broken clouds at 4000 feet AGL
broken clouds at 10000 feet AGL
Weather: no significant weather observed at this time

METAR text: RJAH 192008Z 05006KT 7000 SCT008 BKN040 BKN100 23/22 Q1012 RMK 3ST008 6SC040 7AC100 A2988 VIS N 5KM
Conditions at: RJAH (HYAKURI (JASDF) , JP) observed 2008 UTC 19 August 2019
Temperature: 23.0°C (73°F)
Dewpoint: 22.0°C (72°F) [RH = 94%]
Pressure (altimeter): 29.88 inches Hg (1012.0 mb)
Winds: from the NE (50 degrees) at 7 MPH (6 knots; 3.1 m/s)
Visibility: 4 miles ( 7 km)
Ceiling: 4000 feet AGL
Clouds: scattered clouds at 800 feet AGL
broken clouds at 4000 feet AGL
broken clouds at 10000 feet AGL
Weather: no significant weather observed at this time

METAR text: RJAH 192000Z 07005KT 050V110 8000 FEW008 BKN040 BKN100 24/22 Q1012
Conditions at: RJAH (HYAKURI (JASDF) , JP) observed 2000 UTC 19 August 2019
Temperature: 24.0°C (75°F)
Dewpoint: 22.0°C (72°F) [RH = 89%]
Pressure (altimeter): 29.88 inches Hg (1012.0 mb)
Winds: from the ENE (70 degrees) at 6 MPH (5 knots; 2.6 m/s)
Visibility: 5 miles ( 8 km)
Ceiling: 4000 feet AGL
Clouds: few clouds at 800 feet AGL
broken clouds at 4000 feet AGL
broken clouds at 10000 feet AGL
Weather: no significant weather observed at this time

METAR text: RJAH 191943Z 10005KT 8000 FEW008 BKN040 BKN100 24/22 Q1012 RMK 1ST008 7SC040 7AC100 A2988
Conditions at: RJAH (HYAKURI (JASDF) , JP) observed 1943 UTC 19 August 2019
Temperature: 24.0°C (75°F)
Dewpoint: 22.0°C (72°F) [RH = 89%]
Pressure (altimeter): 29.88 inches Hg (1012.0 mb)
Winds: from the E (100 degrees) at 6 MPH (5 knots; 2.6 m/s)
Visibility: 5 miles ( 8 km)
Ceiling: 4000 feet AGL
Clouds: few clouds at 800 feet AGL
broken clouds at 4000 feet AGL
broken clouds at 10000 feet AGL
Weather: no significant weather observed at this time

METAR text: RJAH 191900Z 06005KT 8000 SCT008 OVC012 24/22 Q1012
Conditions at: RJAH (HYAKURI (JASDF) , JP) observed 1900 UTC 19 August 2019
Temperature: 24.0°C (75°F)
Dewpoint: 22.0°C (72°F) [RH = 89%]
Pressure (altimeter): 29.88 inches Hg (1012.0 mb)
Winds: from the ENE (60 degrees) at 6 MPH (5 knots; 2.6 m/s)
Visibility: 5 miles ( 8 km)
Ceiling: 1200 feet AGL
Clouds: scattered clouds at 800 feet AGL
overcast cloud deck at 1200 feet AGL
Weather: no significant weather observed at this time

METAR text: RJAH 191800Z 08007KT 8000 FEW006 BKN008 OVC012 24/22 Q1012
Conditions at: RJAH (HYAKURI (JASDF) , JP) observed 1800 UTC 19 August 2019
Temperature: 24.0°C (75°F)
Dewpoint: 22.0°C (72°F) [RH = 89%]
Pressure (altimeter): 29.88 inches Hg (1012.0 mb)
Winds: from the E (80 degrees) at 8 MPH (7 knots; 3.6 m/s)
Visibility: 5 miles ( 8 km)
Ceiling: 800 feet AGL
Clouds: few clouds at 600 feet AGL
broken clouds at 800 feet AGL
overcast cloud deck at 1200 feet AGL
Weather: no significant weather observed at this time

METAR text: RJAH 191738Z 07008KT 8000 FEW006 OVC008 24/22 Q1012 RMK 2ST006 8ST008 A2988
Conditions at: RJAH (HYAKURI (JASDF) , JP) observed 1738 UTC 19 August 2019
Temperature: 24.0°C (75°F)
Dewpoint: 22.0°C (72°F) [RH = 89%]
Pressure (altimeter): 29.88 inches Hg (1012.0 mb)
Winds: from the ENE (70 degrees) at 9 MPH (8 knots; 4.1 m/s)
Visibility: 5 miles ( 8 km)
Ceiling: 800 feet AGL
Clouds: few clouds at 600 feet AGL
overcast cloud deck at 800 feet AGL
Weather: no significant weather observed at this time

METAR text: RJAH 191700Z 06006KT 020V100 8000 -SHRA FEW006 OVC008 24/23 Q1012
Conditions at: RJAH (HYAKURI (JASDF) , JP) observed 1700 UTC 19 August 2019
Temperature: 24.0°C (75°F)
Dewpoint: 23.0°C (73°F) [RH = 94%]
Pressure (altimeter): 29.88 inches Hg (1012.0 mb)
Winds: from the ENE (60 degrees) at 7 MPH (6 knots; 3.1 m/s)
Visibility: 5 miles ( 8 km)
Ceiling: 800 feet AGL
Clouds: few clouds at 600 feet AGL
overcast cloud deck at 800 feet AGL
Weather: -SHRA  (light rain showers)

METAR text: RJAH 191641Z 08008KT 8000 -SHRA FEW006 OVC008 24/23 Q1012 RMK 2ST006 8ST008 A2988
Conditions at: RJAH (HYAKURI (JASDF) , JP) observed 1641 UTC 19 August 2019
Temperature: 24.0°C (75°F)
Dewpoint: 23.0°C (73°F) [RH = 94%]
Pressure (altimeter): 29.88 inches Hg (1012.0 mb)
Winds: from the E (80 degrees) at 9 MPH (8 knots; 4.1 m/s)
Visibility: 5 miles ( 8 km)
Ceiling: 800 feet AGL
Clouds: few clouds at 600 feet AGL
overcast cloud deck at 800 feet AGL
Weather: -SHRA  (light rain showers)

METAR text: RJAH 191600Z 06009KT 8000 FEW006 OVC008 24/23 Q1012
Conditions at: RJAH (HYAKURI (JASDF) , JP) observed 1600 UTC 19 August 2019
Temperature: 24.0°C (75°F)
Dewpoint: 23.0°C (73°F) [RH = 94%]
Pressure (altimeter): 29.88 inches Hg (1012.0 mb)
Winds: from the ENE (60 degrees) at 10 MPH (9 knots; 4.6 m/s)
Visibility: 5 miles ( 8 km)
Ceiling: 800 feet AGL
Clouds: few clouds at 600 feet AGL
overcast cloud deck at 800 feet AGL
Weather: no significant weather observed at this time

METAR text: RJAH 191500Z 07008KT 030V100 8000 -SHRA FEW006 OVC008 24/23 Q1012
Conditions at: RJAH (HYAKURI (JASDF) , JP) observed 1500 UTC 19 August 2019
Temperature: 24.0°C (75°F)
Dewpoint: 23.0°C (73°F) [RH = 94%]
Pressure (altimeter): 29.88 inches Hg (1012.0 mb)
Winds: from the ENE (70 degrees) at 9 MPH (8 knots; 4.1 m/s)
Visibility: 5 miles ( 8 km)
Ceiling: 800 feet AGL
Clouds: few clouds at 600 feet AGL
overcast cloud deck at 800 feet AGL
Weather: -SHRA  (light rain showers)

METAR text: RJAH 191426Z 07007KT 030V100 8000 -SHRA FEW006 OVC008 24/23 Q1012 RMK 2ST006 8ST008 A2991
Conditions at: RJAH (HYAKURI (JASDF) , JP) observed 1426 UTC 19 August 2019
Temperature: 24.0°C (75°F)
Dewpoint: 23.0°C (73°F) [RH = 94%]
Pressure (altimeter): 29.88 inches Hg (1012.0 mb)
Winds: from the ENE (70 degrees) at 8 MPH (7 knots; 3.6 m/s)
Visibility: 5 miles ( 8 km)
Ceiling: 800 feet AGL
Clouds: few clouds at 600 feet AGL
overcast cloud deck at 800 feet AGL
Weather: -SHRA  (light rain showers)

METAR text: RJAH 191400Z 06009KT 9999 FEW006 OVC008 24/23 Q1012 RERA
Conditions at: RJAH (HYAKURI (JASDF) , JP) observed 1400 UTC 19 August 2019
Temperature: 24.0°C (75°F)
Dewpoint: 23.0°C (73°F) [RH = 94%]
Pressure (altimeter): 29.88 inches Hg (1012.0 mb)
Winds: from the ENE (60 degrees) at 10 MPH (9 knots; 4.6 m/s)
Visibility: 6 or more miles (10+ km)
Ceiling: 800 feet AGL
Clouds: few clouds at 600 feet AGL
overcast cloud deck at 800 feet AGL
Weather: no significant weather observed at this time

METAR text: RJAH 191337Z 06009KT 9999 -SHRA FEW006 OVC008 24/23 Q1012 RMK 2ST006 8ST008 A2991
Conditions at: RJAH (HYAKURI (JASDF) , JP) observed 1337 UTC 19 August 2019
Temperature: 24.0°C (75°F)
Dewpoint: 23.0°C (73°F) [RH = 94%]
Pressure (altimeter): 29.88 inches Hg (1012.0 mb)
Winds: from the ENE (60 degrees) at 10 MPH (9 knots; 4.6 m/s)
Visibility: 6 or more miles (10+ km)
Ceiling: 800 feet AGL
Clouds: few clouds at 600 feet AGL
overcast cloud deck at 800 feet AGL
Weather: -SHRA  (light rain showers)

METAR text: RJAH 191309Z 05009KT 7000 -SHRA FEW006 BKN008 OVC015 25/23 Q1012 RMK 2ST006 7ST008 8CU015 A2991 VIS NW-N 5KM
Conditions at: RJAH (HYAKURI (JASDF) , JP) observed 1309 UTC 19 August 2019
Temperature: 25.0°C (77°F)
Dewpoint: 23.0°C (73°F) [RH = 89%]
Pressure (altimeter): 29.88 inches Hg (1012.0 mb)
Winds: from the NE (50 degrees) at 10 MPH (9 knots; 4.6 m/s)
Visibility: 4 miles ( 7 km)
Ceiling: 800 feet AGL
Clouds: few clouds at 600 feet AGL
broken clouds at 800 feet AGL
overcast cloud deck at 1500 feet AGL
Weather: -SHRA  (light rain showers)

METAR text: RJAH 191305Z 05009KT 8000 SHRA FEW006 BKN008 OVC015 25/23 Q1012 RMK 2ST006 7ST008 8CU015 A2991 VIS N 5KM
Conditions at: RJAH (HYAKURI (JASDF) , JP) observed 1305 UTC 19 August 2019
Temperature: 25.0°C (77°F)
Dewpoint: 23.0°C (73°F) [RH = 89%]
Pressure (altimeter): 29.88 inches Hg (1012.0 mb)
Winds: from the NE (50 degrees) at 10 MPH (9 knots; 4.6 m/s)
Visibility: 5 miles ( 8 km)
Ceiling: 800 feet AGL
Clouds: few clouds at 600 feet AGL
broken clouds at 800 feet AGL
overcast cloud deck at 1500 feet AGL
Weather: SHRA  (rain showers)

METAR text: RJAH 191300Z 06011KT 9999 -SHRA FEW006 BKN008 OVC015 25/23 Q1012
Conditions at: RJAH (HYAKURI (JASDF) , JP) observed 1300 UTC 19 August 2019
Temperature: 25.0°C (77°F)
Dewpoint: 23.0°C (73°F) [RH = 89%]
Pressure (altimeter): 29.88 inches Hg (1012.0 mb)
Winds: from the ENE (60 degrees) at 13 MPH (11 knots; 5.7 m/s)
Visibility: 6 or more miles (10+ km)
Ceiling: 800 feet AGL
Clouds: few clouds at 600 feet AGL
broken clouds at 800 feet AGL
overcast cloud deck at 1500 feet AGL
Weather: -SHRA  (light rain showers)

METAR text: RJAH 191224Z 05011KT 9999 -SHRA FEW006 BKN008 OVC015 25/23 Q1012 RMK 2ST006 7ST008 8CU015 A2991
Conditions at: RJAH (HYAKURI (JASDF) , JP) observed 1224 UTC 19 August 2019
Temperature: 25.0°C (77°F)
Dewpoint: 23.0°C (73°F) [RH = 89%]
Pressure (altimeter): 29.88 inches Hg (1012.0 mb)
Winds: from the NE (50 degrees) at 13 MPH (11 knots; 5.7 m/s)
Visibility: 6 or more miles (10+ km)
Ceiling: 800 feet AGL
Clouds: few clouds at 600 feet AGL
broken clouds at 800 feet AGL
overcast cloud deck at 1500 feet AGL
Weather: -SHRA  (light rain showers)

METAR text: RJAH 191200Z 06010KT 9999 FEW006 BKN008 OVC015 25/23 Q1012
Conditions at: RJAH (HYAKURI (JASDF) , JP) observed 1200 UTC 19 August 2019
Temperature: 25.0°C (77°F)
Dewpoint: 23.0°C (73°F) [RH = 89%]
Pressure (altimeter): 29.88 inches Hg (1012.0 mb)
Winds: from the ENE (60 degrees) at 12 MPH (10 knots; 5.1 m/s)
Visibility: 6 or more miles (10+ km)
Ceiling: 800 feet AGL
Clouds: few clouds at 600 feet AGL
broken clouds at 800 feet AGL
overcast cloud deck at 1500 feet AGL
Weather: no significant weather observed at this time

METAR text: RJAH 191100Z 06011KT 9999 FEW006 BKN008 OVC015 25/23 Q1012
Conditions at: RJAH (HYAKURI (JASDF) , JP) observed 1100 UTC 19 August 2019
Temperature: 25.0°C (77°F)
Dewpoint: 23.0°C (73°F) [RH = 89%]
Pressure (altimeter): 29.88 inches Hg (1012.0 mb)
Winds: from the ENE (60 degrees) at 13 MPH (11 knots; 5.7 m/s)
Visibility: 6 or more miles (10+ km)
Ceiling: 800 feet AGL
Clouds: few clouds at 600 feet AGL
broken clouds at 800 feet AGL
overcast cloud deck at 1500 feet AGL
Weather: no significant weather observed at this time

METAR text: RJAH 191040Z 06011KT 9999 FEW006 BKN008 OVC015 25/23 Q1012 RMK 2ST006 6ST008 8CU015 A2990
Conditions at: RJAH (HYAKURI (JASDF) , JP) observed 1040 UTC 19 August 2019
Temperature: 25.0°C (77°F)
Dewpoint: 23.0°C (73°F) [RH = 89%]
Pressure (altimeter): 29.88 inches Hg (1012.0 mb)
Winds: from the ENE (60 degrees) at 13 MPH (11 knots; 5.7 m/s)
Visibility: 6 or more miles (10+ km)
Ceiling: 800 feet AGL
Clouds: few clouds at 600 feet AGL
broken clouds at 800 feet AGL
overcast cloud deck at 1500 feet AGL
Weather: no significant weather observed at this time

METAR text: RJAH 191000Z 07009KT 9999 SCT008 BKN010 BKN020 25/23 Q1012
Conditions at: RJAH (HYAKURI (JASDF) , JP) observed 1000 UTC 19 August 2019
Temperature: 25.0°C (77°F)
Dewpoint: 23.0°C (73°F) [RH = 89%]
Pressure (altimeter): 29.88 inches Hg (1012.0 mb)
Winds: from the ENE (70 degrees) at 10 MPH (9 knots; 4.6 m/s)
Visibility: 6 or more miles (10+ km)
Ceiling: 1000 feet AGL
Clouds: scattered clouds at 800 feet AGL
broken clouds at 1000 feet AGL
broken clouds at 2000 feet AGL
Weather: no significant weather observed at this time

METAR text: RJAH 190900Z 07010KT 9999 FEW008 BKN010 BKN020 25/23 Q1011
Conditions at: RJAH (HYAKURI (JASDF) , JP) observed 0900 UTC 19 August 2019
Temperature: 25.0°C (77°F)
Dewpoint: 23.0°C (73°F) [RH = 89%]
Pressure (altimeter): 29.85 inches Hg (1011.0 mb)
Winds: from the ENE (70 degrees) at 12 MPH (10 knots; 5.1 m/s)
Visibility: 6 or more miles (10+ km)
Ceiling: 1000 feet AGL
Clouds: few clouds at 800 feet AGL
broken clouds at 1000 feet AGL
broken clouds at 2000 feet AGL
Weather: no significant weather observed at this time

Forecast for: RJAH (HYAKURI (JASDF) , JP)
Text: TAF RJAH 201715Z 2018/2200 06006KT 9999 FEW010 BKN030
Forecast period: 1800 UTC 20 August 2019 to 0300 UTC 21 August 2019
Forecast type: FROM: standard forecast or significant change
Winds: from the ENE (60 degrees) at 7 MPH (6 knots; 3.1 m/s)
Visibility: 6 or more miles 10+ km)
Ceiling: 3000 feet AGL
Clouds: few clouds at 1000 feet AGL
broken clouds at 3000 feet AGL
Weather: no significant weather forecast for this period
Text: TEMPO 2018/2021 3000 BR FEW005 BKN008
Forecast period: 1800 to 2100 UTC 20 August 2019
Forecast type: TEMPORARY: The following changes expected for less than half the time period
Visibility: 1.86 miles (2.99 km)
Ceiling: 800 feet AGL
Clouds: few clouds at 500 feet AGL
broken clouds at 800 feet AGL
Weather: BR  (mist)
Text: BECMG 2103/2105 12006KT
Forecast period: 0300 to 1800 UTC 21 August 2019
Forecast type: BECOMING: Conditions expected to become as follows by 0500 UTC 21 August 2019
Winds: from the ESE (120 degrees) at 7 MPH (6 knots; 3.1 m/s)
Visibility: 6 or more miles 10+ km)
Ceiling: 3000 feet AGL
Clouds: few clouds at 1000 feet AGL
broken clouds at 3000 feet AGL
Weather: no significant weather forecast for this period
Text: TEMPO 2112/2118 3000 SHRA BR FEW003 BKN005
Forecast period: 1200 to 1800 UTC 21 August 2019
Forecast type: TEMPORARY: The following changes expected for less than half the time period
Visibility: 1.86 miles (2.99 km)
Ceiling: 500 feet AGL
Clouds: few clouds at 300 feet AGL
broken clouds at 500 feet AGL
Weather: SHRA BR  (rain showers, mist)
Text: BECMG 2118/2121 04006KT
Forecast period: 1800 UTC 21 August 2019 to 0000 UTC 22 August 2019
Forecast type: BECOMING: Conditions expected to become as follows by 2100 UTC 21 August 2019
Winds: from the NE (40 degrees) at 7 MPH (6 knots; 3.1 m/s)
Visibility: 6 or more miles 10+ km)
Ceiling: 3000 feet AGL
Clouds: few clouds at 1000 feet AGL
broken clouds at 3000 feet AGL
Weather: no significant weather forecast for this period
Text: TEMPO 2118/2200 4000 BR FEW005 BKN008
Forecast period: 1800 UTC 21 August 2019 to 0000 UTC 22 August 2019
Forecast type: TEMPORARY: The following changes expected for less than half the time period
Visibility: 2.49 miles (4.01 km)
Ceiling: 800 feet AGL
Clouds: few clouds at 500 feet AGL
broken clouds at 800 feet AGL
Weather: BR  (mist)